Airfield :
LOGIN :

Register | Disclaimer

   EN    FR    IT 

 










Legend :    VFR   Marginal VFR   IFR   Intensive IFR   Very Intensive IFR
Visi :
Ceiling :
>= 8 km
>= 3000ft
5 to 8 km
1000 to 3000 ft
1500m to 5 km
500 to 1000 ft
800 to 1500m
200 to 500 ft
< 800m
< 200 ft
Symbols :   Thunderstorms  Fog  Heavy snow  Heavy precipitations  Wind > 20 kt
SIGMETs :     Misc.  Thunderstorms  Icing  Turbulence  Mountain Waves  Volcanic Ashes






- Airport Elevation : 465 ft
- IATA code : LEJ


EDDP - Leipzig Halle

CURRENT METAR :
  • 121250Z 19011KT 9999 FEW033 08/02 Q1005 NOSIG

EXPIRED METARs :
  • 121220Z 19011KT CAVOK 07/02 Q1005 NOSIG
  • 121150Z 19011KT CAVOK 07/02 Q1005 NOSIG
  • 121120Z 19012KT CAVOK 07/02 Q1006 NOSIG
  • 121050Z 19012KT CAVOK 06/03 Q1006 NOSIG
  • 121020Z 18011KT CAVOK 06/03 Q1006 NOSIG

TAF TAF EDDP
Valid from the 12 at 12:00 until the 13 at 12:00 UTC


121100Z 1212/1312 20013KT 9999 SCT030
BECMG 1214/1216 18008KT



MET'MAP, your aeronautical weather chart ! - Copyright ORBIFLY December 2007 - Disclaimer

ORBIFLY MET'MAP TEAM :

Programming & Development : Alexandra Zaïnal
Concept & Development : Baudouin d'Aumeries
Co-Development & Prog : Marc-Olivier Méhu
Technical & hardware support : Manuel Goepfert

Contact : metmap@orbifly.com




SOURCES & CREDITS :

   NOAA